Time;durP1;ratioP1;P1;durP2;ratioP2;P2;SDS_P1;SDS_P2;PMS_P1;PMS_P2;Temp;Humidity;BMP_temperature;BMP_pressure;BME280_temperature;BME280_humidity;BME280_pressure;Samples;Min_cycle;Max_cycle;Signal;HPM_P1;HPM_P2
2022/05/07 00:00:24;;;;;;;8.07;2.83;;;;;;;15.14;53.41;100667.00;5051147;28;20624;-63
2022/05/07 00:02:51;;;;;;;6.88;3.20;;;;;;;15.59;53.03;100754.41;5051603;28;20741;-67
2022/05/07 00:05:19;;;;;;;6.15;3.40;;;;;;;15.36;53.27;100736.81;5051818;28;20203;-67
2022/05/07 00:07:46;;;;;;;5.75;3.00;;;;;;;15.50;53.56;100751.72;5050968;28;20227;-67
2022/05/07 00:10:13;;;;;;;8.00;3.40;;;;;;;15.49;53.46;100752.56;5051578;28;20679;-67
2022/05/07 00:12:39;;;;;;;3.90;3.25;;;;;;;15.53;53.23;100759.56;5051278;28;20572;-69
2022/05/07 00:15:09;;;;;;;5.78;3.00;;;;;;;15.66;53.47;100756.19;5016593;28;20207;-69
2022/05/07 00:20:20;;;;;;;4.38;3.30;;;;;;;15.29;53.97;100758.53;5049296;28;20565;-66
2022/05/07 00:22:47;;;;;;;5.78;3.33;;;;;;;15.22;53.97;100732.34;5051044;28;20648;-66
2022/05/07 00:25:14;;;;;;;6.10;3.25;;;;;;;15.27;54.00;100752.41;5051389;28;20199;-69
2022/05/07 00:27:41;;;;;;;3.97;3.30;;;;;;;15.05;54.08;100724.41;5050945;28;20226;-66
2022/05/07 00:30:10;;;;;;;4.85;3.40;;;;;;;15.33;54.22;100744.63;5050846;28;20202;-66
2022/05/07 00:32:36;;;;;;;3.88;2.92;;;;;;;15.03;54.47;100743.50;5050908;28;20206;-66
2022/05/07 00:35:03;;;;;;;6.45;3.20;;;;;;;15.11;54.44;100749.69;5051539;28;20214;-66
2022/05/07 00:37:30;;;;;;;6.68;3.30;;;;;;;15.05;54.85;100742.69;5050871;28;20210;-66
2022/05/07 00:39:57;;;;;;;3.92;2.65;;;;;;;15.23;53.92;100749.78;5051006;28;20195;-66
2022/05/07 00:42:24;;;;;;;6.60;2.90;;;;;;;15.25;54.33;100737.59;5050903;28;20206;-66
2022/05/07 00:44:51;;;;;;;4.75;3.28;;;;;;;15.10;54.56;100716.56;5051026;28;20210;-66
2022/05/07 00:47:23;;;;;;;2.72;2.53;;;;;;;15.25;55.00;100751.53;5051015;28;20286;-66
2022/05/07 00:49:51;;;;;;;4.80;3.20;;;;;;;15.12;55.29;100748.81;5050554;28;20659;-66
2022/05/07 00:52:18;;;;;;;9.68;2.85;;;;;;;15.04;55.92;100748.75;5012330;28;20266;-66
2022/05/07 00:54:45;;;;;;;6.75;3.17;;;;;;;14.78;56.27;100730.28;5050752;28;20846;-66
2022/05/07 00:57:13;;;;;;;6.07;3.65;;;;;;;14.93;55.45;100734.75;5050164;28;20683;-66
2022/05/07 00:59:40;;;;;;;6.25;3.40;;;;;;;14.81;55.22;100735.50;5051009;28;20211;-66
2022/05/07 01:02:07;;;;;;;3.60;2.95;;;;;;;14.74;55.66;100738.06;5050638;28;20199;-66
2022/05/07 01:04:36;;;;;;;6.03;3.03;;;;;;;14.98;55.20;100738.28;5015054;28;20760;-69
2022/05/07 01:07:03;;;;;;;3.85;2.92;;;;;;;15.00;55.07;100740.88;5050135;28;20227;-66
2022/05/07 01:09:31;;;;;;;4.03;3.20;;;;;;;14.87;55.02;100729.50;5050652;28;20203;-68
2022/05/07 01:11:58;;;;;;;10.52;3.40;;;;;;;14.91;54.94;100741.69;5050907;28;20234;-66
2022/05/07 01:14:25;;;;;;;3.38;3.17;;;;;;;15.01;54.61;100737.44;5050414;28;20206;-66
2022/05/07 01:16:52;;;;;;;4.32;3.13;;;;;;;15.08;54.53;100742.72;5050965;28;20211;-66
2022/05/07 01:19:19;;;;;;;5.28;3.10;;;;;;;15.03;54.59;100739.19;5050954;28;20199;-69
2022/05/07 01:21:47;;;;;;;5.70;3.33;;;;;;;15.10;54.92;100737.47;5050527;28;20204;-68
2022/05/07 01:24:14;;;;;;;7.13;3.00;;;;;;;15.05;54.19;100724.41;5050999;28;20199;-68
2022/05/07 01:26:41;;;;;;;3.70;3.13;;;;;;;14.95;54.59;100737.38;5050532;28;20223;-68
2022/05/07 01:29:08;;;;;;;4.50;2.97;;;;;;;14.99;54.80;100724.34;5050144;28;20198;-68
2022/05/07 01:31:35;;;;;;;2.97;2.70;;;;;;;15.14;55.85;100745.34;5049570;28;20250;-68
2022/05/07 01:34:02;;;;;;;3.10;2.80;;;;;;;14.78;59.67;100745.06;5049666;28;20662;-68
2022/05/07 01:36:29;;;;;;;9.63;3.53;;;;;;;14.78;60.66;100747.66;5050555;28;20191;-68
2022/05/07 01:38:57;;;;;;;4.43;3.15;;;;;;;14.52;62.74;100712.66;5050435;28;20195;-66
2022/05/07 01:41:23;;;;;;;7.55;3.80;;;;;;;14.47;64.14;100749.13;5049996;28;20265;-68
2022/05/07 01:43:50;;;;;;;3.50;3.13;;;;;;;14.34;65.94;100748.13;5050303;28;20289;-68
2022/05/07 01:49:01;;;;;;;7.25;3.50;;;;;;;14.22;70.35;100741.88;5050126;28;20218;-68
2022/05/07 01:51:28;;;;;;;4.50;3.03;;;;;;;14.15;71.74;100742.66;5011440;28;20215;-68
2022/05/07 01:53:56;;;;;;;7.82;3.63;;;;;;;13.94;71.74;100719.84;5003038;28;20200;-68
2022/05/07 01:56:23;;;;;;;3.67;3.38;;;;;;;13.95;72.57;100747.63;5046401;28;20192;-68
2022/05/07 01:58:50;;;;;;;5.07;3.50;;;;;;;13.72;70.81;100728.25;5050152;28;20191;-68
2022/05/07 02:01:18;;;;;;;5.20;3.30;;;;;;;13.94;69.34;100732.88;5050095;28;20195;-66
2022/05/07 02:03:44;;;;;;;5.43;3.10;;;;;;;14.01;67.45;100723.38;5049923;28;20205;-66
2022/05/07 02:06:11;;;;;;;3.65;3.33;;;;;;;13.82;66.83;100701.44;5050029;28;20207;-68
2022/05/07 02:08:38;;;;;;;4.93;3.42;;;;;;;14.01;65.64;100724.28;5051753;28;20191;-68
2022/05/07 02:11:06;;;;;;;4.60;3.65;;;;;;;14.06;63.68;100709.53;5053802;28;20199;-68
2022/05/07 02:13:33;;;;;;;4.03;3.33;;;;;;;13.96;64.40;100694.66;5053906;28;20238;-68
2022/05/07 02:16:00;;;;;;;7.13;2.90;;;;;;;14.20;62.78;100730.53;5053657;28;20210;-68
2022/05/07 02:18:27;;;;;;;3.75;3.35;;;;;;;14.20;62.84;100728.81;5053682;28;20207;-68
2022/05/07 02:20:53;;;;;;;5.68;3.53;;;;;;;14.02;63.71;100728.59;5018658;28;20200;-68
2022/05/07 02:23:21;;;;;;;4.38;3.00;;;;;;;13.90;62.79;100686.78;5034007;28;20727;-68
2022/05/07 02:25:47;;;;;;;8.10;3.45;;;;;;;14.13;62.34;100715.69;5041691;28;20203;-68
2022/05/07 02:28:17;;;;;;;5.82;3.55;;;;;;;14.31;62.10;100719.38;5053310;28;20246;-66
2022/05/07 02:30:44;;;;;;;13.85;3.53;;;;;;;14.30;62.11;100728.03;5053135;28;20257;-68
2022/05/07 02:33:10;;;;;;;6.13;3.70;;;;;;;14.23;61.46;100715.78;5053009;28;20219;-68
2022/05/07 02:35:37;;;;;;;3.45;2.90;;;;;;;14.20;61.71;100723.59;5053319;28;20637;-68
2022/05/07 02:38:04;;;;;;;3.72;3.40;;;;;;;14.32;61.51;100722.84;5052970;28;20278;-68
2022/05/07 02:42:33;;;;;;;9.40;3.42;;;;;;;14.32;63.79;100728.94;5053340;28;20198;-68
2022/05/07 02:43:18;;;;;;;5.18;3.75;;;;;;;14.38;65.15;100733.38;5053105;28;20203;-68
2022/05/07 02:45:45;;;;;;;10.98;3.53;;;;;;;14.11;67.82;100713.06;5052817;28;20219;-68
2022/05/07 02:48:12;;;;;;;5.32;4.53;;;;;;;14.12;82.77;100729.59;5053375;28;20234;-68
2022/05/07 02:50:38;;;;;;;7.72;4.72;;;;;;;13.76;99.34;100736.13;5053192;28;20200;-68
2022/05/07 02:53:05;;;;;;;12.88;4.65;;;;;;;13.23;100.00;100648.59;5053046;28;20663;-68
2022/05/07 02:55:32;;;;;;;5.13;4.22;;;;;;;13.47;100.00;100731.38;5052262;28;20210;-68
2022/05/07 02:57:59;;;;;;;4.68;4.18;;;;;;;13.54;100.00;100738.44;5052905;28;20203;-68
2022/05/07 03:00:27;;;;;;;6.88;4.25;;;;;;;13.47;100.00;100732.28;5053045;28;20196;-68
2022/05/07 03:02:54;;;;;;;8.70;4.85;;;;;;;13.33;100.00;100728.59;5053214;28;20654;-68
2022/05/07 03:05:21;;;;;;;5.78;4.25;;;;;;;13.21;100.00;100702.38;5052986;28;20713;-68
2022/05/07 03:07:48;;;;;;;7.57;4.40;;;;;;;13.38;100.00;100745.16;5052030;28;20223;-66
2022/05/07 03:10:15;;;;;;;7.55;4.40;;;;;;;13.38;100.00;100745.16;5052666;28;20192;-68
2022/05/07 03:12:42;;;;;;;4.40;4.00;;;;;;;13.34;100.00;100746.84;5052243;28;20761;-68
2022/05/07 03:15:09;;;;;;;6.10;4.40;;;;;;;13.31;100.00;100741.59;5052616;28;20196;-68
2022/05/07 03:17:37;;;;;;;9.30;4.40;;;;;;;13.35;100.00;100747.72;5017131;28;20281;-68
2022/05/07 03:20:09;;;;;;;5.75;4.60;;;;;;;13.31;100.00;100740.72;5032563;28;20204;-68
2022/05/07 03:22:36;;;;;;;10.05;5.00;;;;;;;13.22;100.00;100728.44;5039026;28;20195;-68
2022/05/07 03:25:03;;;;;;;6.07;4.57;;;;;;;13.31;100.00;100751.13;5052496;28;20199;-68
2022/05/07 03:27:32;;;;;;;6.88;4.88;;;;;;;13.30;100.00;100754.59;5032478;28;20227;-68
2022/05/07 03:29:59;;;;;;;6.95;4.97;;;;;;;12.98;100.00;100755.81;5052618;28;20284;-68
2022/05/07 03:32:25;;;;;;;7.75;5.25;;;;;;;12.99;100.00;100753.22;5051835;28;20214;-68
2022/05/07 03:34:53;;;;;;;6.60;5.32;;;;;;;12.97;100.00;100747.13;5052254;28;20208;-68
2022/05/07 03:37:20;;;;;;;8.95;5.20;;;;;;;13.05;100.00;100753.31;5017174;28;20199;-68
2022/05/07 03:39:47;;;;;;;8.23;5.15;;;;;;;13.36;100.00;100755.56;5016971;28;20278;-68
2022/05/07 03:42:14;;;;;;;9.00;5.13;;;;;;;13.75;100.00;100754.34;5052261;28;20282;-68
2022/05/07 03:44:40;;;;;;;5.90;4.85;;;;;;;14.08;95.51;100713.03;5052391;28;20199;-68
2022/05/07 03:47:07;;;;;;;6.55;5.00;;;;;;;14.46;87.77;100668.22;5052101;28;20215;-68
2022/05/07 03:49:35;;;;;;;11.82;5.53;;;;;;;15.43;83.51;100757.72;5051846;28;20587;-68
2022/05/07 03:54:47;;;;;;;9.25;5.40;;;;;;;16.09;74.90;100747.63;5051906;28;20198;-68
2022/05/07 03:57:16;;;;;;;13.32;5.82;;;;;;;16.14;75.23;100747.63;5034898;28;20195;-66
2022/05/07 03:59:43;;;;;;;8.57;5.13;;;;;;;16.23;76.29;100761.59;5049474;28;20202;-66
2022/05/07 04:02:10;;;;;;;4.90;4.50;;;;;;;15.68;77.62;100707.38;5036195;28;20664;-68
2022/05/07 04:04:37;;;;;;;7.53;5.43;;;;;;;16.05;78.75;100761.53;5051777;28;20214;-68
2022/05/07 04:07:05;;;;;;;7.95;4.80;;;;;;;16.25;78.19;100767.75;5051743;28;20227;-68
2022/05/07 04:09:32;;;;;;;9.70;4.35;;;;;;;15.81;79.12;100777.13;5016241;28;20272;-68
2022/05/07 04:11:59;;;;;;;9.13;4.40;;;;;;;14.88;88.16;100778.22;5051183;28;20238;-68
2022/05/07 04:14:26;;;;;;;7.32;4.90;;;;;;;14.92;89.44;100774.78;4997219;28;20207;-68
2022/05/07 04:16:52;;;;;;;5.32;4.30;;;;;;;15.59;84.25;100783.16;5041967;28;20206;-66
2022/05/07 04:19:19;;;;;;;9.02;4.63;;;;;;;16.11;78.10;100782.53;5051540;28;20200;-66
2022/05/07 04:21:46;;;;;;;7.93;4.68;;;;;;;16.83;72.35;100788.84;5050984;28;20667;-66
2022/05/07 04:24:14;;;;;;;5.20;4.15;;;;;;;16.96;71.70;100784.47;5051039;28;20199;-66
2022/05/07 04:26:41;;;;;;;9.38;4.85;;;;;;;16.62;70.81;100792.28;5050465;28;20246;-66
2022/05/07 04:29:08;;;;;;;12.00;5.03;;;;;;;17.40;66.04;100801.06;5051182;28;20234;-66
2022/05/07 04:31:34;;;;;;;12.18;4.90;;;;;;;17.57;63.57;100778.31;5050535;28;20203;-66
2022/05/07 04:34:01;;;;;;;4.80;4.40;;;;;;;17.81;62.24;100794.00;5050250;28;20225;-66
2022/05/07 04:36:28;;;;;;;10.52;4.63;;;;;;;17.35;65.87;100808.91;5050870;28;20200;-66
2022/05/07 04:38:55;;;;;;;8.43;4.60;;;;;;;17.06;65.63;100812.41;5050596;28;20206;-66
2022/05/07 04:41:23;;;;;;;6.85;4.57;;;;;;;17.66;63.58;100814.13;5050674;28;20210;-66
2022/05/07 04:43:50;;;;;;;6.45;4.82;;;;;;;16.75;65.38;100808.91;5050990;28;20608;-66
2022/05/07 04:46:17;;;;;;;5.90;4.20;;;;;;;16.12;68.30;100815.69;5050221;28;20195;-66
2022/05/07 04:48:46;;;;;;;8.57;4.85;;;;;;;16.51;67.20;100816.69;5050754;28;20805;-66
2022/05/07 04:51:12;;;;;;;12.65;5.75;;;;;;;17.13;66.05;100777.47;5050573;28;20286;-68
2022/05/07 04:53:39;;;;;;;7.20;4.93;;;;;;;17.53;63.77;100820.25;5014887;28;20203;-69
2022/05/07 04:56:06;;;;;;;6.85;4.90;;;;;;;17.44;62.38;100791.44;5051384;28;20200;-69
2022/05/07 04:58:34;;;;;;;11.55;5.10;;;;;;;18.01;61.23;100821.94;5050498;28;20219;-69
2022/05/07 05:01:01;;;;;;;6.43;4.80;;;;;;;17.69;61.51;100817.63;5051059;28;20587;-69
2022/05/07 05:03:28;;;;;;;7.57;4.40;;;;;;;18.80;58.43;100806.66;5051070;28;20192;-69
2022/05/07 05:05:54;;;;;;;7.07;5.22;;;;;;;18.42;58.51;100811.22;5050802;28;20208;-69
2022/05/07 05:08:21;;;;;;;7.97;4.93;;;;;;;18.86;57.30;100780.34;5015496;28;20227;-69
2022/05/07 05:10:48;;;;;;;11.50;5.10;;;;;;;19.91;55.30;100824.06;5050821;28;20195;-69
2022/05/07 05:13:15;;;;;;;7.60;4.82;;;;;;;20.27;53.54;100815.75;5050868;28;20235;-69
2022/05/07 05:15:43;;;;;;;4.78;4.28;;;;;;;21.44;52.22;100821.97;5053092;28;20204;-70
2022/05/07 05:18:12;;;;;;;7.22;5.22;;;;;;;20.81;52.22;100835.22;5050294;28;20728;-70
2022/05/07 05:20:38;;;;;;;7.50;4.57;;;;;;;20.80;52.00;100830.00;5050421;28;20287;-70
2022/05/07 05:23:06;;;;;;;9.80;4.43;;;;;;;19.03;54.80;100833.66;5047901;28;20200;-69
2022/05/07 05:25:33;;;;;;;8.73;4.88;;;;;;;19.29;55.29;100838.72;5047414;28;20231;-68
2022/05/07 05:27:59;;;;;;;8.43;4.93;;;;;;;18.44;57.85;100830.50;5015230;28;20306;-68
2022/05/07 05:30:26;;;;;;;5.22;4.78;;;;;;;17.78;61.53;100841.22;5049431;28;20199;-69
2022/05/07 05:32:54;;;;;;;7.95;5.10;;;;;;;17.07;64.98;100830.75;5049055;28;20200;-69
2022/05/07 05:35:22;;;;;;;9.75;5.28;;;;;;;16.61;69.98;100847.28;5042938;28;20200;-68
2022/05/07 05:37:50;;;;;;;6.18;5.30;;;;;;;16.83;71.73;100854.31;5049652;28;20195;-69
2022/05/07 05:40:17;;;;;;;10.93;5.47;;;;;;;16.92;72.60;100851.69;5050447;28;20192;-68
2022/05/07 05:42:44;;;;;;;6.03;4.85;;;;;;;16.29;76.46;100850.63;5049777;28;20795;-68
2022/05/07 05:45:11;;;;;;;10.50;5.95;;;;;;;16.48;76.99;100830.59;5053905;28;20226;-68
2022/05/07 05:47:38;;;;;;;7.65;5.60;;;;;;;16.44;78.86;100855.06;5053225;28;20242;-68
2022/05/07 05:50:07;;;;;;;5.72;4.78;;;;;;;16.14;82.94;100849.69;5055768;28;20270;-68
2022/05/07 05:52:34;;;;;;;10.07;6.20;;;;;;;15.56;88.16;100836.25;5017547;28;20208;-69
2022/05/07 05:55:01;;;;;;;6.13;5.50;;;;;;;15.55;89.37;100850.22;5054012;28;20215;-68
2022/05/07 05:57:28;;;;;;;8.77;4.68;;;;;;;15.27;89.03;100829.91;5053457;28;20222;-67
2022/05/07 05:59:54;;;;;;;7.75;5.60;;;;;;;15.24;90.36;100856.00;5054006;28;20663;-68
2022/05/07 06:02:22;;;;;;;7.15;5.78;;;;;;;15.33;88.43;100856.97;5002507;28;20661;-69
2022/05/07 06:04:49;;;;;;;8.77;6.70;;;;;;;15.85;84.45;100855.63;5050489;28;20210;-70
2022/05/07 06:07:17;;;;;;;9.85;5.82;;;;;;;16.46;79.51;100868.13;5053584;28;20187;-69
2022/05/07 06:09:44;;;;;;;10.68;5.88;;;;;;;16.26;79.66;100850.63;5053483;28;20225;-69
2022/05/07 06:12:11;;;;;;;12.15;6.40;;;;;;;16.76;79.38;100863.03;5053055;28;20230;-69
2022/05/07 06:14:38;;;;;;;12.10;6.10;;;;;;;16.66;78.17;100866.47;5052907;28;20207;-69
2022/05/07 06:17:05;;;;;;;7.55;5.70;;;;;;;16.72;77.25;100856.91;5053738;28;20253;-71
2022/05/07 06:19:31;;;;;;;8.07;5.88;;;;;;;17.31;73.84;100867.47;5053781;28;20199;-69
2022/05/07 06:21:58;;;;;;;9.18;5.95;;;;;;;17.28;72.74;100848.22;5053904;28;20203;-77
2022/05/07 06:27:32;;;;;;;7.35;4.75;;;;;;;17.05;69.35;100863.94;5030572;28;20331;-71
2022/05/07 06:29:59;;;;;;;10.60;5.70;;;;;;;17.74;67.45;100864.84;5031110;28;20688;-69
2022/05/07 06:32:32;;;;;;;7.88;5.65;;;;;;;18.35;63.65;100860.28;5031271;28;20196;-69
2022/05/07 06:34:59;;;;;;;9.15;5.50;;;;;;;18.53;63.44;100852.34;5031430;28;20290;-74
2022/05/07 06:37:26;;;;;;;9.45;5.45;;;;;;;19.11;61.24;100855.50;5031136;28;20200;-75
2022/05/07 06:39:54;;;;;;;7.75;4.70;;;;;;;18.47;59.78;100869.88;5029811;28;20223;-66
2022/05/07 06:42:20;;;;;;;8.52;4.80;;;;;;;18.74;59.06;100869.75;5029318;28;20310;-66
2022/05/07 06:44:47;;;;;;;15.80;5.80;;;;;;;19.60;59.50;100863.00;5030957;28;20684;-66
2022/05/07 06:47:14;;;;;;;8.23;5.80;;;;;;;19.46;62.48;100867.53;5030657;28;20188;-66
2022/05/07 06:49:41;;;;;;;9.07;6.03;;;;;;;19.10;63.99;100866.91;4997933;28;20310;-66
2022/05/07 06:52:08;;;;;;;9.02;5.82;;;;;;;19.33;61.78;100865.84;4997794;28;20204;-69
2022/05/07 06:54:35;;;;;;;6.22;5.18;;;;;;;19.67;60.44;100857.66;5029979;28;20196;-67
2022/05/07 06:57:04;;;;;;;8.52;5.40;;;;;;;19.22;59.89;100858.94;5029944;28;20207;-69
2022/05/07 06:59:30;;;;;;;11.95;5.68;;;;;;;18.59;61.52;100868.06;5016512;28;20284;-66
2022/05/07 07:01:57;;;;;;;10.00;5.30;;;;;;;18.71;62.31;100867.16;5053366;28;20196;-67
2022/05/07 07:04:24;;;;;;;7.20;5.75;;;;;;;18.89;64.15;100859.16;5053567;28;20199;-66
2022/05/07 07:06:52;;;;;;;7.85;4.93;;;;;;;19.01;65.01;100858.22;5052948;28;20211;-66
2022/05/07 07:09:19;;;;;;;7.10;5.28;;;;;;;19.24;66.08;100864.16;5052264;28;20219;-66
2022/05/07 07:11:45;;;;;;;17.52;5.68;;;;;;;18.33;72.66;100877.81;5052548;28;20212;-66
2022/05/07 07:14:14;;;;;;;8.20;6.32;;;;;;;18.53;73.16;100873.38;5052873;28;20215;-67
2022/05/07 07:16:40;;;;;;;8.13;6.40;;;;;;;18.67;73.98;100868.03;5052769;28;20635;-66
2022/05/07 07:19:07;;;;;;;10.38;6.78;;;;;;;18.57;71.25;100871.59;5015912;28;20208;-67
2022/05/07 07:21:34;;;;;;;11.55;6.22;;;;;;;18.98;72.12;100869.59;5017161;28;20612;-66
2022/05/07 07:24:01;;;;;;;10.52;5.60;;;;;;;19.37;65.91;100849.16;5051565;28;20200;-66
2022/05/07 07:26:28;;;;;;;7.80;5.45;;;;;;;20.05;61.10;100865.16;5051436;28;20589;-67
2022/05/07 07:28:56;;;;;;;7.22;5.95;;;;;;;20.03;60.33;100860.81;5032597;28;20227;-67
2022/05/07 07:31:24;;;;;;;6.03;5.32;;;;;;;20.37;59.62;100866.59;5049163;28;20614;-66
2022/05/07 07:33:51;;;;;;;11.65;5.90;;;;;;;20.10;59.66;100866.00;5051630;28;20203;-67
2022/05/07 07:36:18;;;;;;;7.70;4.75;;;;;;;20.55;58.65;100869.84;5052927;28;20199;-67
2022/05/07 07:38:44;;;;;;;5.75;4.78;;;;;;;20.71;57.57;100873.16;5051931;28;20200;-67
2022/05/07 07:41:11;;;;;;;8.00;5.10;;;;;;;20.02;57.93;100870.47;5052286;28;20584;-67
2022/05/07 07:43:39;;;;;;;6.07;4.50;;;;;;;20.29;57.44;100864.06;5051062;28;20612;-67
2022/05/07 07:48:52;;;;;;;7.50;5.05;;;;;;;20.47;57.30;100884.03;5051072;28;20726;-66
2022/05/07 07:51:20;;;;;;;8.27;4.57;;;;;;;20.26;55.26;100880.72;5050703;28;20206;-67
2022/05/07 07:53:47;;;;;;;5.22;4.15;;;;;;;20.67;53.43;100871.47;5051378;28;20589;-66
2022/05/07 07:56:13;;;;;;;7.68;4.97;;;;;;;20.26;54.63;100875.44;5051937;28;20257;-66
2022/05/07 07:58:40;;;;;;;11.90;5.05;;;;;;;20.13;55.38;100879.13;5051014;28;20196;-66
2022/05/07 08:01:07;;;;;;;10.18;4.47;;;;;;;19.45;56.75;100868.41;5051830;28;20191;-63
2022/05/07 08:03:34;;;;;;;9.52;5.45;;;;;;;19.85;61.02;100846.09;5050933;28;20191;-66
2022/05/07 08:06:02;;;;;;;5.90;4.65;;;;;;;20.34;55.77;100863.97;5051287;28;20214;-66
2022/05/07 08:13:57;;;;;;;8.15;4.72;;;;;;;19.90;56.33;100846.94;5036251;28;20265;-66
2022/05/07 08:16:25;;;;;;;7.18;5.00;;;;;;;20.43;54.79;100856.84;5051847;28;20192;-65
2022/05/07 08:18:52;;;;;;;10.73;4.88;;;;;;;20.89;53.54;100865.00;5050747;28;20199;-65
2022/05/07 08:21:20;;;;;;;6.03;4.63;;;;;;;20.85;53.26;100833.41;5051419;28;20249;-65
2022/05/07 08:23:47;;;;;;;6.97;4.63;;;;;;;21.12;51.95;100843.56;5031316;28;20687;-67
2022/05/07 08:26:14;;;;;;;8.35;4.65;;;;;;;20.78;51.78;100848.47;5015532;28;20205;-67
2022/05/07 08:28:41;;;;;;;11.98;4.40;;;;;;;20.75;50.44;100844.13;5050650;28;20215;-66
2022/05/07 08:31:10;;;;;;;6.18;4.30;;;;;;;20.94;50.33;100859.66;5050880;28;20226;-66
2022/05/07 08:33:39;;;;;;;8.98;4.47;;;;;;;21.14;50.54;100860.25;5050288;28;20207;-66
2022/05/07 08:36:06;;;;;;;7.90;4.10;;;;;;;21.27;48.02;100854.75;5051024;28;20229;-66
2022/05/07 08:38:35;;;;;;;5.20;4.10;;;;;;;20.90;49.29;100837.75;5015694;28;20199;-66
2022/05/07 08:41:03;;;;;;;5.05;3.63;;;;;;;20.69;50.47;100860.00;5047103;28;20227;-66
2022/05/07 08:43:33;;;;;;;5.65;4.10;;;;;;;21.55;50.25;100863.06;5050534;28;20346;-66
2022/05/07 08:46:00;;;;;;;7.20;4.10;;;;;;;20.94;48.15;100854.41;5050355;28;20191;-66
2022/05/07 08:48:27;;;;;;;9.70;3.85;;;;;;;20.98;48.55;100851.66;5050423;28;20655;-66
2022/05/07 08:50:54;;;;;;;4.78;4.13;;;;;;;21.10;47.28;100842.69;5050029;28;20664;-66
2022/05/07 08:53:21;;;;;;;6.20;4.47;;;;;;;21.50;47.51;100856.16;5050161;28;20281;-65
2022/05/07 08:55:54;;;;;;;8.20;4.55;;;;;;;21.46;43.56;100859.72;5050629;28;20202;-65
2022/05/07 08:58:21;;;;;;;11.73;4.57;;;;;;;20.97;43.31;100838.53;5050802;28;20203;-65
2022/05/07 09:00:48;;;;;;;7.43;4.32;;;;;;;20.67;43.07;100853.00;5050330;28;20196;-65
2022/05/07 09:03:17;;;;;;;5.60;3.85;;;;;;;20.26;44.07;100843.84;5031712;28;20195;-65
2022/05/07 09:05:44;;;;;;;5.65;4.00;;;;;;;20.55;44.85;100845.25;5016144;28;20203;-65
2022/05/07 09:08:12;;;;;;;6.63;4.00;;;;;;;20.50;44.62;100847.97;5050531;28;20586;-66
2022/05/07 09:10:40;;;;;;;9.07;4.22;;;;;;;20.10;44.17;100825.63;5050179;28;20196;-65
2022/05/07 09:13:15;;;;;;;5.80;4.07;;;;;;;20.52;45.30;100816.31;5049362;28;20793;-65
2022/05/07 09:15:53;;;;;;;7.82;3.80;;;;;;;20.67;44.82;100839.84;5031687;28;20203;-65
2022/05/07 09:18:22;;;;;;;6.13;4.15;;;;;;;20.53;44.38;100768.00;5049523;28;20207;-66
2022/05/07 09:21:19;;;;;;;8.70;3.90;;;;;;;21.17;43.83;100836.47;5050184;28;20242;-65
2022/05/07 09:23:48;;;;;;;8.68;4.10;;;;;;;21.07;44.41;100834.84;5016817;28;20208;-65
2022/05/07 09:26:25;;;;;;;8.80;3.95;;;;;;;21.47;43.75;100848.28;5050180;28;20286;-66
2022/05/07 09:28:54;;;;;;;9.10;3.80;;;;;;;21.95;42.89;100844.78;5052616;28;20308;-66
2022/05/07 09:31:28;;;;;;;5.00;3.72;;;;;;;21.76;42.89;100830.13;5050739;28;20683;-65
2022/05/07 09:33:55;;;;;;;5.10;3.72;;;;;;;21.86;42.57;100838.78;5049739;28;20199;-66
2022/05/07 09:36:23;;;;;;;3.67;3.20;;;;;;;21.45;41.38;100843.03;5050477;28;20925;-65
2022/05/07 09:39:00;;;;;;;6.90;3.83;;;;;;;21.53;42.87;100803.31;5014601;28;20192;-67
2022/05/07 09:41:27;;;;;;;9.38;4.18;;;;;;;21.54;41.34;100815.59;5050553;28;20191;-66
2022/05/07 09:43:56;;;;;;;6.10;3.75;;;;;;;21.90;42.56;100812.31;5014853;28;20208;-68
2022/05/07 09:46:23;;;;;;;7.30;4.68;;;;;;;22.15;40.93;100831.19;5050412;28;20219;-67
2022/05/07 09:48:51;;;;;;;5.05;3.40;;;;;;;22.03;40.62;100842.84;5050373;28;20223;-67
2022/05/07 09:51:20;;;;;;;5.35;4.10;;;;;;;22.64;40.19;100816.00;5015437;28;20210;-67
2022/05/07 09:59:17;;;;;;;4.13;3.67;;;;;;;22.23;41.11;100808.09;5020367;28;20207;-67
2022/05/07 10:02:17;;;;;;;6.22;4.05;;;;;;;22.50;40.82;100817.22;5015213;28;20192;-67
2022/05/07 10:05:04;;;;;;;5.43;4.00;;;;;;;22.42;39.64;100813.88;4969132;28;20745;-71
2022/05/07 10:07:52;;;;;;;7.32;2.65;;;;;;;22.07;39.93;100818.13;4977879;28;20374;-67
2022/05/07 10:10:25;;;;;;;5.13;3.47;;;;;;;22.19;40.05;100802.00;4987738;28;20253;-67
2022/05/07 10:12:55;;;;;;;5.95;4.47;;;;;;;22.37;40.00;100790.16;4987952;28;20314;-66
2022/05/07 10:15:25;;;;;;;9.55;3.97;;;;;;;22.24;38.47;100779.00;4988199;28;20257;-68
2022/05/07 10:18:00;;;;;;;5.90;4.20;;;;;;;22.59;41.68;100772.06;4956154;28;20206;-69
2022/05/07 10:20:37;;;;;;;4.45;3.65;;;;;;;22.68;37.13;100785.13;4987478;28;20205;-66
2022/05/07 10:23:04;;;;;;;3.58;3.15;;;;;;;22.67;37.26;100788.66;4986692;28;20220;-66
2022/05/07 10:25:30;;;;;;;7.32;4.03;;;;;;;23.01;37.19;100783.44;4987149;28;20205;-66
2022/05/07 10:28:08;;;;;;;6.75;3.75;;;;;;;23.45;36.27;100790.25;4933410;28;20206;-67
2022/05/07 10:30:45;;;;;;;6.75;4.20;;;;;;;23.75;36.67;100784.16;4989871;28;20221;-66
2022/05/07 10:33:12;;;;;;;7.70;3.78;;;;;;;23.37;36.39;100739.25;4990027;28;20759;-66
2022/05/07 10:35:40;;;;;;;6.68;3.42;;;;;;;23.41;35.70;100778.88;4990415;28;20212;-67
2022/05/07 10:38:08;;;;;;;7.03;3.50;;;;;;;22.80;36.82;100778.66;4989654;28;20292;-67
2022/05/07 10:40:35;;;;;;;5.85;3.63;;;;;;;22.91;36.70;100769.56;4992124;28;20209;-68
2022/05/07 10:43:03;;;;;;;3.63;3.22;;;;;;;22.75;37.34;100773.50;5052545;28;20199;-67
2022/05/07 10:45:41;;;;;;;4.60;3.53;;;;;;;23.67;37.23;100767.59;5053230;28;20269;-67
2022/05/07 10:48:18;;;;;;;3.85;2.75;;;;;;;23.08;36.71;100756.75;5051565;28;20775;-67
2022/05/07 10:50:52;;;;;;;5.28;2.75;;;;;;;23.25;35.28;100766.06;5052423;28;20307;-68
2022/05/07 10:53:19;;;;;;;10.27;3.15;;;;;;;23.08;35.22;100738.25;4985019;28;20235;-67
2022/05/07 10:55:46;;;;;;;4.03;3.33;;;;;;;22.79;34.81;100756.66;5052746;28;20248;-67
2022/05/07 10:58:13;;;;;;;9.65;3.25;;;;;;;23.05;34.58;100750.69;5052689;28;20207;-67
2022/05/07 11:00:41;;;;;;;3.67;2.70;;;;;;;23.07;34.61;100748.88;5038288;28;20265;-67
2022/05/07 11:03:12;;;;;;;4.70;2.90;;;;;;;23.37;34.82;100745.44;5036335;28;20200;-67
2022/05/07 11:05:41;;;;;;;4.88;3.20;;;;;;;23.41;34.37;100740.91;5051332;28;20207;-67
2022/05/07 11:08:09;;;;;;;6.60;3.38;;;;;;;23.70;34.00;100733.06;5050865;28;20644;-67
2022/05/07 11:10:37;;;;;;;4.57;3.22;;;;;;;23.86;33.07;100733.53;5050363;28;20692;-67
2022/05/07 11:13:08;;;;;;;2.70;2.50;;;;;;;23.85;33.42;100716.75;5051131;28;20701;-67
2022/05/07 11:15:34;;;;;;;4.03;2.92;;;;;;;23.53;33.36;100703.56;5051025;28;20207;-67
2022/05/07 11:18:14;;;;;;;3.65;2.88;;;;;;;23.32;33.61;100660.00;5050762;28;20203;-67
2022/05/07 11:20:41;;;;;;;5.45;3.05;;;;;;;23.63;33.03;100723.56;5050505;28;20241;-68
2022/05/07 11:23:13;;;;;;;6.35;2.90;;;;;;;23.83;32.64;100720.38;5051760;28;20203;-68
2022/05/07 11:25:43;;;;;;;5.55;2.55;;;;;;;23.52;31.84;100717.69;5051760;28;20195;-67
2022/05/07 11:28:10;;;;;;;5.18;3.80;;;;;;;23.53;32.81;100708.88;5052181;28;20227;-67
2022/05/07 11:30:36;;;;;;;10.80;3.40;;;;;;;23.27;34.85;100692.78;5051455;28;20215;-67
2022/05/07 11:33:06;;;;;;;3.10;2.90;;;;;;;23.64;34.34;100717.38;5051116;28;20208;-67
2022/05/07 11:35:33;;;;;;;4.82;2.88;;;;;;;23.97;33.93;100716.38;5052385;28;20278;-67
2022/05/07 11:38:01;;;;;;;3.20;2.47;;;;;;;23.75;34.83;100706.47;5017076;28;20683;-67
2022/05/07 11:40:30;;;;;;;5.72;3.63;;;;;;;23.60;36.04;100644.22;5051160;28;20226;-68
2022/05/07 11:45:37;;;;;;;5.70;3.05;;;;;;;24.24;37.38;100708.53;5051354;28;20274;-69
2022/05/07 11:48:09;;;;;;;3.70;3.00;;;;;;;24.49;37.44;100705.09;5033209;28;20594;-68
2022/05/07 11:50:40;;;;;;;3.13;2.83;;;;;;;24.18;36.71;100701.66;5051492;28;20255;-68
2022/05/07 11:53:11;;;;;;;3.70;3.00;;;;;;;24.53;36.81;100713.81;5050203;28;20207;-69
2022/05/07 11:55:38;;;;;;;6.95;3.30;;;;;;;24.11;37.44;100702.75;5051924;28;20218;-68